createdAt,value
2023-01-20T00:04:02.519Z,100455.28
2023-01-20T00:09:05.378Z,100463.38
2023-01-20T00:14:07.114Z,100462.13
2023-01-20T00:19:12.167Z,100463.19
2023-01-20T00:24:14.658Z,100469.47
2023-01-20T00:29:16.477Z,100471.16
2023-01-20T00:34:18.355Z,100471.97
2023-01-20T00:39:20.053Z,100474.69
2023-01-20T00:44:21.717Z,100480.03
2023-01-20T00:49:23.460Z,100481.75
2023-01-20T00:54:25.329Z,100473.75
2023-01-20T00:59:27.319Z,100481.69
2023-01-20T01:04:29.146Z,100479.25
2023-01-20T01:09:32.551Z,100485.44
2023-01-20T01:14:34.327Z,100488.84
2023-01-20T01:19:35.996Z,100495.06
2023-01-20T01:24:37.856Z,100502.22
2023-01-20T01:29:39.668Z,100513.50
2023-01-20T01:34:41.649Z,100518.06
2023-01-20T01:39:43.320Z,100517.88
2023-01-20T01:45:13.401Z,100521.63
2023-01-20T01:50:21.538Z,100533.94
2023-01-20T01:55:27.692Z,100541.13
2023-01-20T02:00:29.821Z,100542.69
2023-01-20T02:05:32.570Z,100547.22
2023-01-20T02:10:34.229Z,100549.72
2023-01-20T02:15:45.384Z,100542.84
2023-01-20T02:20:54.503Z,100543.78
2023-01-20T02:26:14.915Z,100541.13
2023-01-20T02:31:50.082Z,100538.69
2023-01-20T02:36:54.235Z,100545.44
2023-01-20T02:42:01.559Z,100548.28
2023-01-20T02:47:08.251Z,100542.78
2023-01-20T02:52:21.090Z,100539.41
2023-01-20T02:57:29.702Z,100549.97
2023-01-20T03:02:36.162Z,100549.94
2023-01-20T03:07:41.731Z,100553.41
2023-01-20T03:13:02.992Z,100557.13
2023-01-20T03:18:04.999Z,100560.69
2023-01-20T03:23:06.955Z,100565.84
2023-01-20T03:28:08.621Z,100571.22
2023-01-20T03:33:12.048Z,100565.69
2023-01-20T03:38:13.893Z,100569.28
2023-01-20T03:43:45.715Z,100571.28
2023-01-20T03:48:53.998Z,100567.59
2023-01-20T03:54:04.052Z,100581.06
2023-01-20T03:59:09.553Z,100578.22
2023-01-20T04:04:18.092Z,100574.81
2023-01-20T04:09:25.136Z,100581.84
2023-01-20T04:14:26.835Z,100582.72
2023-01-20T04:19:28.447Z,100573.88
2023-01-20T04:25:20.807Z,100589.97
2023-01-20T04:30:22.611Z,100588.13
2023-01-20T04:35:24.444Z,100595.69
2023-01-20T04:40:26.899Z,100589.66
2023-01-20T04:45:28.570Z,100584.56
2023-01-20T04:50:30.233Z,100586.28
2023-01-20T04:55:33.353Z,100594.38
2023-01-20T05:00:35.041Z,100597.84
2023-01-20T05:05:36.720Z,100610.91
2023-01-20T05:10:38.412Z,100617.16
2023-01-20T05:15:40.677Z,100626.88
2023-01-20T05:20:49.324Z,100623.31
2023-01-20T05:25:52.057Z,100627.69
2023-01-20T05:30:53.825Z,100626.03
2023-01-20T05:35:56.128Z,100633.94
2023-01-20T05:41:06.168Z,100644.53
2023-01-20T05:46:07.917Z,100650.69
2023-01-20T05:51:09.842Z,100657.81
2023-01-20T05:56:16.366Z,100659.56
2023-01-20T06:01:18.116Z,100664.75
2023-01-20T06:06:19.873Z,100673.69
2023-01-20T06:11:21.763Z,100678.16
2023-01-20T06:16:23.942Z,100681.63
2023-01-20T06:21:25.916Z,100677.25
2023-01-20T06:26:27.623Z,100678.91
2023-01-20T06:31:29.403Z,100680.88
2023-01-20T06:36:31.082Z,100687.88
2023-01-20T06:41:32.967Z,100694.84
2023-01-20T06:46:34.794Z,100695.88
2023-01-20T06:51:36.639Z,100693.34
2023-01-20T06:56:38.316Z,100694.13
2023-01-20T07:01:40.430Z,100710.09
2023-01-20T07:06:42.631Z,100716.19
2023-01-20T07:11:44.556Z,100710.09
2023-01-20T07:16:46.805Z,100718.88
2023-01-20T07:21:48.522Z,100722.31
2023-01-20T07:26:52.813Z,100736.53
2023-01-20T07:31:54.546Z,100734.91
2023-01-20T07:36:56.293Z,100750.78
2023-01-20T07:41:58.091Z,100740.91
2023-01-20T07:46:59.913Z,100753.38
2023-01-20T07:52:01.619Z,100739.31
2023-01-20T07:57:03.283Z,100750.72
2023-01-20T08:02:05.119Z,100754.06
2023-01-20T08:07:07.007Z,100748.03
2023-01-20T08:12:08.774Z,100758.50
2023-01-20T08:17:10.526Z,100752.31
2023-01-20T08:22:12.307Z,100755.09
2023-01-20T08:27:13.997Z,100755.03
2023-01-20T08:32:15.688Z,100755.97
2023-01-20T08:37:17.726Z,100765.56
2023-01-20T08:42:19.698Z,100760.50
2023-01-20T08:47:21.392Z,100760.50
2023-01-20T08:52:23.144Z,100768.31
2023-01-20T08:57:26.598Z,100772.88
2023-01-20T09:02:28.674Z,100772.34
2023-01-20T09:07:30.507Z,100760.25
2023-01-20T09:12:32.273Z,100772.00
2023-01-20T09:17:37.105Z,100777.50
2023-01-20T09:22:40.543Z,100769.94
2023-01-20T09:27:42.220Z,100770.69
2023-01-20T09:32:43.968Z,100763.50
2023-01-20T09:38:03.959Z,100766.25
2023-01-20T09:43:54.191Z,100754.13
2023-01-20T09:49:32.290Z,100758.53
2023-01-20T09:54:50.620Z,100761.91
2023-01-20T10:00:03.222Z,100756.69
2023-01-20T10:05:33.187Z,100758.53
2023-01-20T10:10:46.742Z,100761.09
2023-01-20T10:15:53.785Z,100758.50
2023-01-20T10:20:58.426Z,100757.50
2023-01-20T10:26:09.529Z,100757.63
2023-01-20T10:31:15.032Z,100764.63
2023-01-20T10:36:23.434Z,100762.06
2023-01-20T10:41:31.352Z,100756.66
2023-01-20T10:46:39.158Z,100758.34
2023-01-20T10:51:52.816Z,100745.09
2023-01-20T10:56:59.154Z,100737.19
2023-01-20T11:02:18.645Z,100739.19
2023-01-20T11:07:20.407Z,100733.88
2023-01-20T11:12:28.927Z,100741.72
2023-01-20T11:17:30.916Z,100737.19
2023-01-20T11:22:36.671Z,100743.03
2023-01-20T11:27:44.245Z,100739.28
2023-01-20T11:32:46.030Z,100731.59
2023-01-20T11:37:47.820Z,100737.09
2023-01-20T11:42:51.776Z,100730.66
2023-01-20T11:48:04.971Z,100726.41
2023-01-20T11:53:12.580Z,100725.66
2023-01-20T11:58:20.810Z,100718.19
2023-01-20T12:03:31.717Z,100710.44
2023-01-20T12:08:39.024Z,100712.13
2023-01-20T12:14:25.752Z,100715.16
2023-01-20T12:19:51.877Z,100707.59
2023-01-20T12:25:10.749Z,100711.41
2023-01-20T12:30:51.295Z,100713.75
2023-01-20T12:36:07.922Z,100702.19
2023-01-20T12:41:32.779Z,100707.78
2023-01-20T12:46:41.882Z,100706.19
2023-01-20T12:52:03.813Z,100708.69
2023-01-20T12:57:47.359Z,100715.72
2023-01-20T13:03:01.734Z,100719.09
2023-01-20T13:08:36.954Z,100726.06
2023-01-20T13:13:57.584Z,100735.25
2023-01-20T13:19:08.924Z,100730.78
2023-01-20T13:24:24.442Z,100736.81
2023-01-20T13:29:35.159Z,100751.22
2023-01-20T13:34:40.495Z,100748.94
2023-01-20T13:39:52.202Z,100752.03
2023-01-20T13:45:12.124Z,100752.34
2023-01-20T13:50:30.807Z,100759.28
2023-01-20T13:55:41.663Z,100757.22
2023-01-20T14:00:44.634Z,100767.00
2023-01-20T14:06:19.563Z,100775.94
2023-01-20T14:11:22.660Z,100771.50
2023-01-20T14:16:28.481Z,100785.75
2023-01-20T14:21:41.580Z,100794.72
2023-01-20T14:26:43.305Z,100809.19
2023-01-20T14:31:46.297Z,100805.50
2023-01-20T14:36:49.074Z,100804.88
2023-01-20T14:41:59.242Z,100799.72
2023-01-20T14:47:02.813Z,100812.63
2023-01-20T14:52:06.122Z,100813.44
2023-01-20T14:57:21.941Z,100815.78
2023-01-20T15:02:30.451Z,100814.84
2023-01-20T15:07:32.200Z,100820.00
2023-01-20T15:12:47.395Z,100825.25
2023-01-20T15:18:11.145Z,100843.81
2023-01-20T15:23:21.398Z,100848.28
2023-01-20T15:28:29.670Z,100855.19
2023-01-20T15:33:31.469Z,100867.69
2023-01-20T15:38:33.226Z,100865.03
2023-01-20T15:43:34.881Z,100883.44
2023-01-20T15:48:36.567Z,100891.53
2023-01-20T15:53:38.205Z,100900.41
2023-01-20T15:58:39.901Z,100900.53
2023-01-20T16:03:41.936Z,100907.44
2023-01-20T16:08:46.605Z,100920.59
2023-01-20T16:13:48.518Z,100927.78
2023-01-20T16:18:50.760Z,100934.78
2023-01-20T16:23:52.496Z,100936.50
2023-01-20T16:28:56.681Z,100945.41
2023-01-20T16:33:58.509Z,100950.38
2023-01-20T16:39:00.175Z,100950.31
2023-01-20T16:44:02.046Z,100951.38
2023-01-20T16:49:03.834Z,100960.94
2023-01-20T16:54:05.690Z,100973.38
2023-01-20T16:59:08.256Z,100978.44
2023-01-20T17:04:11.018Z,100982.88
2023-01-20T17:09:12.804Z,100987.03
2023-01-20T17:14:15.758Z,100999.44
2023-01-20T17:19:17.918Z,101020.75
2023-01-20T17:24:19.605Z,101026.22
2023-01-20T17:29:22.165Z,101029.94
2023-01-20T17:34:24.009Z,101044.00
2023-01-20T17:39:25.856Z,101051.09
2023-01-20T17:44:27.605Z,101059.03
2023-01-20T17:49:29.318Z,101072.22
2023-01-20T17:54:31.491Z,101078.31
2023-01-20T17:59:33.203Z,101086.91
2023-01-20T18:04:34.875Z,101104.88
2023-01-20T18:09:36.586Z,101110.88
2023-01-20T18:14:38.840Z,101117.34
2023-01-20T18:19:40.582Z,101129.50
2023-01-20T18:24:42.334Z,101133.09
2023-01-20T18:29:44.198Z,101142.09
2023-01-20T18:34:45.991Z,101134.19
2023-01-20T18:39:47.723Z,101146.38
2023-01-20T18:44:49.524Z,101155.13
2023-01-20T18:49:51.311Z,101157.81
2023-01-20T18:54:53.292Z,101173.69
2023-01-20T18:59:55.217Z,101175.50
2023-01-20T19:04:56.870Z,101191.91
2023-01-20T19:09:58.586Z,101209.00
2023-01-20T19:15:00.267Z,101217.84
2023-01-20T19:20:02.168Z,101226.31
2023-01-20T19:25:03.992Z,101250.81
2023-01-20T19:30:06.347Z,101248.50
2023-01-20T19:35:09.254Z,101253.69
2023-01-20T19:40:11.468Z,101262.31
2023-01-20T19:45:13.436Z,101271.28
2023-01-20T19:50:15.746Z,101283.34
2023-01-20T19:55:17.646Z,101285.94
2023-01-20T20:00:19.936Z,101295.19
2023-01-20T20:05:21.691Z,101307.31
2023-01-20T20:10:23.446Z,101313.56
2023-01-20T20:15:25.191Z,101327.88
2023-01-20T20:20:27.162Z,101341.88
2023-01-20T20:25:28.893Z,101346.00
2023-01-20T20:30:31.065Z,101360.03
2023-01-20T20:35:35.824Z,101385.03
2023-01-20T20:40:37.795Z,101388.84
2023-01-20T20:45:39.509Z,101400.78
2023-01-20T20:50:41.239Z,101411.84
2023-01-20T20:55:43.003Z,101415.00
2023-01-20T21:00:49.979Z,101422.28
2023-01-20T21:05:51.705Z,101436.25
2023-01-20T21:10:53.465Z,101442.38
2023-01-20T21:16:00.633Z,101459.13
2023-01-20T21:21:04.107Z,101467.25
2023-01-20T21:26:11.937Z,101469.94
2023-01-20T21:31:16.827Z,101481.50
2023-01-20T21:36:18.577Z,101498.16
2023-01-20T21:41:20.588Z,101498.22
2023-01-20T21:46:23.880Z,101507.22
2023-01-20T21:51:44.178Z,101513.38
2023-01-20T21:56:46.239Z,101521.34
2023-01-20T22:01:48.121Z,101525.41
2023-01-20T22:06:49.899Z,101538.19
2023-01-20T22:11:51.682Z,101548.06
2023-01-20T22:16:53.380Z,101556.50
2023-01-20T22:21:56.905Z,101566.59
2023-01-20T22:26:58.817Z,101578.75
2023-01-20T22:32:03.327Z,101584.28
2023-01-20T22:37:05.000Z,101588.31
2023-01-20T22:42:07.721Z,101599.59
2023-01-20T22:47:11.018Z,101608.63
2023-01-20T22:52:12.937Z,101616.56
2023-01-20T22:57:15.221Z,101625.47
2023-01-20T23:02:16.968Z,101640.53
2023-01-20T23:07:18.965Z,101654.47
2023-01-20T23:12:20.635Z,101666.00
2023-01-20T23:17:22.364Z,101658.16
2023-01-20T23:22:25.000Z,101654.59
2023-01-20T23:27:26.711Z,101676.66
2023-01-20T23:32:28.411Z,101683.75
2023-01-20T23:37:30.352Z,101691.75
2023-01-20T23:42:32.016Z,101697.09
2023-01-20T23:47:33.946Z,101702.38
2023-01-20T23:52:35.792Z,101705.94
2023-01-20T23:57:37.462Z,101710.34
